sensor_id;sensor_type;location;lat;lon;timestamp;temperature;humidity
19340;HTU21D;9804;52.350;6.684;2023-11-22T00:00:02;5.49;118.99
19340;HTU21D;9804;52.350;6.684;2023-11-22T00:02:28;5.47;118.99
19340;HTU21D;9804;52.350;6.684;2023-11-22T00:04:55;5.45;118.99
19340;HTU21D;9804;52.350;6.684;2023-11-22T00:07:20;5.53;118.99
19340;HTU21D;9804;52.350;6.684;2023-11-22T00:09:46;5.48;118.99
19340;HTU21D;9804;52.350;6.684;2023-11-22T00:12:13;5.40;118.99
19340;HTU21D;9804;52.350;6.684;2023-11-22T00:14:38;5.35;118.99
19340;HTU21D;9804;52.350;6.684;2023-11-22T00:17:04;5.30;118.99
19340;HTU21D;9804;52.350;6.684;2023-11-22T00:19:29;5.21;118.99
19340;HTU21D;9804;52.350;6.684;2023-11-22T00:21:55;5.20;118.99
19340;HTU21D;9804;52.350;6.684;2023-11-22T00:24:21;5.18;118.99
19340;HTU21D;9804;52.350;6.684;2023-11-22T00:26:46;5.22;118.99
19340;HTU21D;9804;52.350;6.684;2023-11-22T00:29:12;5.22;118.99
19340;HTU21D;9804;52.350;6.684;2023-11-22T00:31:37;5.24;118.99
19340;HTU21D;9804;52.350;6.684;2023-11-22T00:34:02;5.24;118.99
19340;HTU21D;9804;52.350;6.684;2023-11-22T00:36:28;5.26;118.99
19340;HTU21D;9804;52.350;6.684;2023-11-22T00:38:54;5.23;118.99
19340;HTU21D;9804;52.350;6.684;2023-11-22T00:41:19;5.25;118.99
19340;HTU21D;9804;52.350;6.684;2023-11-22T00:43:46;5.23;118.99
19340;HTU21D;9804;52.350;6.684;2023-11-22T00:46:11;5.21;118.99
19340;HTU21D;9804;52.350;6.684;2023-11-22T00:48:36;5.18;118.99
19340;HTU21D;9804;52.350;6.684;2023-11-22T00:51:02;5.16;118.99
19340;HTU21D;9804;52.350;6.684;2023-11-22T00:53:34;5.07;118.99
19340;HTU21D;9804;52.350;6.684;2023-11-22T00:55:59;5.18;118.99
19340;HTU21D;9804;52.350;6.684;2023-11-22T00:58:25;5.28;118.99
19340;HTU21D;9804;52.350;6.684;2023-11-22T01:00:50;5.35;118.99
19340;HTU21D;9804;52.350;6.684;2023-11-22T01:03:15;5.33;118.99
19340;HTU21D;9804;52.350;6.684;2023-11-22T01:05:41;5.26;118.99
19340;HTU21D;9804;52.350;6.684;2023-11-22T01:08:07;5.30;118.99
19340;HTU21D;9804;52.350;6.684;2023-11-22T01:10:33;5.30;118.99
19340;HTU21D;9804;52.350;6.684;2023-11-22T01:12:58;5.18;118.99
19340;HTU21D;9804;52.350;6.684;2023-11-22T01:15:23;5.13;118.99
19340;HTU21D;9804;52.350;6.684;2023-11-22T01:17:50;5.12;118.99
19340;HTU21D;9804;52.350;6.684;2023-11-22T01:20:15;5.11;118.99
19340;HTU21D;9804;52.350;6.684;2023-11-22T01:22:40;5.16;118.99
19340;HTU21D;9804;52.350;6.684;2023-11-22T01:25:07;5.15;118.99
19340;HTU21D;9804;52.350;6.684;2023-11-22T01:27:33;5.12;118.99
19340;HTU21D;9804;52.350;6.684;2023-11-22T01:29:58;5.10;118.99
19340;HTU21D;9804;52.350;6.684;2023-11-22T01:32:24;5.11;118.99
19340;HTU21D;9804;52.350;6.684;2023-11-22T01:34:49;5.07;118.99
19340;HTU21D;9804;52.350;6.684;2023-11-22T01:37:14;5.08;118.99
19340;HTU21D;9804;52.350;6.684;2023-11-22T01:39:40;5.13;118.99
19340;HTU21D;9804;52.350;6.684;2023-11-22T01:42:07;5.18;118.99
19340;HTU21D;9804;52.350;6.684;2023-11-22T01:44:32;5.07;118.99
19340;HTU21D;9804;52.350;6.684;2023-11-22T01:46:58;5.03;118.99
19340;HTU21D;9804;52.350;6.684;2023-11-22T01:49:23;5.05;118.99
19340;HTU21D;9804;52.350;6.684;2023-11-22T01:51:49;4.96;118.99
19340;HTU21D;9804;52.350;6.684;2023-11-22T01:54:15;5.00;118.99
19340;HTU21D;9804;52.350;6.684;2023-11-22T01:56:42;4.95;118.99
19340;HTU21D;9804;52.350;6.684;2023-11-22T01:59:07;4.91;118.99
19340;HTU21D;9804;52.350;6.684;2023-11-22T02:01:34;4.75;118.99
19340;HTU21D;9804;52.350;6.684;2023-11-22T02:03:59;4.65;118.99
19340;HTU21D;9804;52.350;6.684;2023-11-22T02:06:26;4.60;118.99
19340;HTU21D;9804;52.350;6.684;2023-11-22T02:08:51;4.54;118.99
19340;HTU21D;9804;52.350;6.684;2023-11-22T02:11:18;4.51;118.99
19340;HTU21D;9804;52.350;6.684;2023-11-22T02:13:48;4.48;118.99
19340;HTU21D;9804;52.350;6.684;2023-11-22T02:16:15;4.47;118.99
19340;HTU21D;9804;52.350;6.684;2023-11-22T02:18:46;4.36;118.99
19340;HTU21D;9804;52.350;6.684;2023-11-22T02:21:12;4.28;118.99
19340;HTU21D;9804;52.350;6.684;2023-11-22T02:23:37;4.26;118.99
19340;HTU21D;9804;52.350;6.684;2023-11-22T02:26:03;4.23;118.99
19340;HTU21D;9804;52.350;6.684;2023-11-22T02:28:28;4.26;118.99
19340;HTU21D;9804;52.350;6.684;2023-11-22T02:30:53;4.22;118.99
19340;HTU21D;9804;52.350;6.684;2023-11-22T02:33:20;4.24;118.99
19340;HTU21D;9804;52.350;6.684;2023-11-22T02:35:45;4.22;118.99
19340;HTU21D;9804;52.350;6.684;2023-11-22T02:38:11;4.21;118.99
19340;HTU21D;9804;52.350;6.684;2023-11-22T02:40:36;4.22;118.99
19340;HTU21D;9804;52.350;6.684;2023-11-22T02:43:02;4.19;118.99
19340;HTU21D;9804;52.350;6.684;2023-11-22T02:45:32;4.19;118.99
19340;HTU21D;9804;52.350;6.684;2023-11-22T02:47:58;4.12;118.99
19340;HTU21D;9804;52.350;6.684;2023-11-22T02:50:24;4.01;118.99
19340;HTU21D;9804;52.350;6.684;2023-11-22T02:52:50;3.98;113.24
19340;HTU21D;9804;52.350;6.684;2023-11-22T02:55:16;3.95;107.20
19340;HTU21D;9804;52.350;6.684;2023-11-22T02:57:41;3.89;95.90
19340;HTU21D;9804;52.350;6.684;2023-11-22T03:00:10;3.84;88.87
19340;HTU21D;9804;52.350;6.684;2023-11-22T03:02:39;3.78;92.36
19340;HTU21D;9804;52.350;6.684;2023-11-22T03:05:06;3.82;101.80
19340;HTU21D;9804;52.350;6.684;2023-11-22T03:07:31;3.75;100.04
19340;HTU21D;9804;52.350;6.684;2023-11-22T03:09:57;3.76;99.70
19340;HTU21D;9804;52.350;6.684;2023-11-22T03:12:25;3.74;99.93
19340;HTU21D;9804;52.350;6.684;2023-11-22T03:14:50;3.75;110.73
19340;HTU21D;9804;52.350;6.684;2023-11-22T03:17:16;3.73;108.48
19340;HTU21D;9804;52.350;6.684;2023-11-22T03:19:41;3.67;100.84
19340;HTU21D;9804;52.350;6.684;2023-11-22T03:22:07;3.69;111.87
19340;HTU21D;9804;52.350;6.684;2023-11-22T03:24:33;3.65;112.70
19340;HTU21D;9804;52.350;6.684;2023-11-22T03:27:02;3.63;110.40
19340;HTU21D;9804;52.350;6.684;2023-11-22T03:29:27;3.65;113.62
19340;HTU21D;9804;52.350;6.684;2023-11-22T03:31:54;3.62;105.46
19340;HTU21D;9804;52.350;6.684;2023-11-22T03:34:19;3.62;98.97
19340;HTU21D;9804;52.350;6.684;2023-11-22T03:36:45;3.64;97.25
19340;HTU21D;9804;52.350;6.684;2023-11-22T03:39:10;3.56;77.89
19340;HTU21D;9804;52.350;6.684;2023-11-22T03:41:36;3.59;87.57
19340;HTU21D;9804;52.350;6.684;2023-11-22T03:44:03;3.61;93.75
19340;HTU21D;9804;52.350;6.684;2023-11-22T03:46:29;3.60;89.28
19340;HTU21D;9804;52.350;6.684;2023-11-22T03:48:55;3.58;82.94
19340;HTU21D;9804;52.350;6.684;2023-11-22T03:51:20;3.55;81.38
19340;HTU21D;9804;52.350;6.684;2023-11-22T03:53:46;3.54;78.04
19340;HTU21D;9804;52.350;6.684;2023-11-22T03:56:11;3.48;68.51
19340;HTU21D;9804;52.350;6.684;2023-11-22T03:58:36;3.56;83.88
19340;HTU21D;9804;52.350;6.684;2023-11-22T04:01:02;3.56;82.28
19340;HTU21D;9804;52.350;6.684;2023-11-22T04:03:28;3.59;87.36
19340;HTU21D;9804;52.350;6.684;2023-11-22T04:05:53;3.60;90.88
19340;HTU21D;9804;52.350;6.684;2023-11-22T04:08:19;3.60;83.26
19340;HTU21D;9804;52.350;6.684;2023-11-22T04:10:45;3.56;76.86
19340;HTU21D;9804;52.350;6.684;2023-11-22T04:13:10;3.49;82.35
19340;HTU21D;9804;52.350;6.684;2023-11-22T04:15:36;3.61;104.55
19340;HTU21D;9804;52.350;6.684;2023-11-22T04:18:01;3.69;112.47
19340;HTU21D;9804;52.350;6.684;2023-11-22T04:20:27;3.69;107.78
19340;HTU21D;9804;52.350;6.684;2023-11-22T04:22:52;3.68;107.11
19340;HTU21D;9804;52.350;6.684;2023-11-22T04:25:18;3.62;98.89
19340;HTU21D;9804;52.350;6.684;2023-11-22T04:27:43;3.59;83.31
19340;HTU21D;9804;52.350;6.684;2023-11-22T04:30:09;3.56;76.72
19340;HTU21D;9804;52.350;6.684;2023-11-22T04:32:39;3.52;76.64
19340;HTU21D;9804;52.350;6.684;2023-11-22T04:35:06;3.59;94.24
19340;HTU21D;9804;52.350;6.684;2023-11-22T04:37:31;3.58;99.00
19340;HTU21D;9804;52.350;6.684;2023-11-22T04:40:00;3.53;88.02
19340;HTU21D;9804;52.350;6.684;2023-11-22T04:42:32;3.55;93.58
19340;HTU21D;9804;52.350;6.684;2023-11-22T04:44:58;3.53;91.15
19340;HTU21D;9804;52.350;6.684;2023-11-22T04:47:23;3.48;86.92
19340;HTU21D;9804;52.350;6.684;2023-11-22T04:49:48;3.46;89.65
19340;HTU21D;9804;52.350;6.684;2023-11-22T04:52:14;3.40;75.68
19340;HTU21D;9804;52.350;6.684;2023-11-22T04:54:40;3.30;63.91
19340;HTU21D;9804;52.350;6.684;2023-11-22T04:57:05;3.32;68.07
19340;HTU21D;9804;52.350;6.684;2023-11-22T04:59:31;3.34;77.60
19340;HTU21D;9804;52.350;6.684;2023-11-22T05:01:57;3.33;86.03
19340;HTU21D;9804;52.350;6.684;2023-11-22T05:04:22;3.32;86.16
19340;HTU21D;9804;52.350;6.684;2023-11-22T05:06:47;3.27;78.21
19340;HTU21D;9804;52.350;6.684;2023-11-22T05:09:13;3.24;73.22
19340;HTU21D;9804;52.350;6.684;2023-11-22T05:11:39;3.21;80.90
19340;HTU21D;9804;52.350;6.684;2023-11-22T05:14:06;3.20;80.58
19340;HTU21D;9804;52.350;6.684;2023-11-22T05:16:32;3.13;63.66
19340;HTU21D;9804;52.350;6.684;2023-11-22T05:18:58;3.15;70.26
19340;HTU21D;9804;52.350;6.684;2023-11-22T05:21:24;3.14;78.95
19340;HTU21D;9804;52.350;6.684;2023-11-22T05:23:49;3.24;93.77
19340;HTU21D;9804;52.350;6.684;2023-11-22T05:26:15;3.23;91.72
19340;HTU21D;9804;52.350;6.684;2023-11-22T05:28:40;3.20;87.03
19340;HTU21D;9804;52.350;6.684;2023-11-22T05:31:05;3.15;67.02
19340;HTU21D;9804;52.350;6.684;2023-11-22T05:33:31;3.04;47.28
19340;HTU21D;9804;52.350;6.684;2023-11-22T05:35:57;2.98;46.49
19340;HTU21D;9804;52.350;6.684;2023-11-22T05:38:23;2.97;52.66
19340;HTU21D;9804;52.350;6.684;2023-11-22T05:40:48;3.04;60.87
19340;HTU21D;9804;52.350;6.684;2023-11-22T05:43:14;3.02;63.40
19340;HTU21D;9804;52.350;6.684;2023-11-22T05:45:39;3.11;79.79
19340;HTU21D;9804;52.350;6.684;2023-11-22T05:48:05;3.11;69.94
19340;HTU21D;9804;52.350;6.684;2023-11-22T05:50:30;3.10;64.69
19340;HTU21D;9804;52.350;6.684;2023-11-22T05:52:55;3.08;55.49
19340;HTU21D;9804;52.350;6.684;2023-11-22T05:55:21;3.09;70.02
19340;HTU21D;9804;52.350;6.684;2023-11-22T05:57:47;3.12;72.70
19340;HTU21D;9804;52.350;6.684;2023-11-22T06:00:13;3.14;76.32
19340;HTU21D;9804;52.350;6.684;2023-11-22T06:02:41;3.14;76.12
19340;HTU21D;9804;52.350;6.684;2023-11-22T06:05:07;3.14;74.72
19340;HTU21D;9804;52.350;6.684;2023-11-22T06:07:33;3.18;76.54
19340;HTU21D;9804;52.350;6.684;2023-11-22T06:09:58;3.16;65.36
19340;HTU21D;9804;52.350;6.684;2023-11-22T06:12:24;3.18;69.13
19340;HTU21D;9804;52.350;6.684;2023-11-22T06:14:49;3.14;55.55
19340;HTU21D;9804;52.350;6.684;2023-11-22T06:17:14;3.14;64.82
19340;HTU21D;9804;52.350;6.684;2023-11-22T06:19:40;3.18;70.88
19340;HTU21D;9804;52.350;6.684;2023-11-22T06:22:09;3.19;71.90
19340;HTU21D;9804;52.350;6.684;2023-11-22T06:24:34;3.12;72.88
19340;HTU21D;9804;52.350;6.684;2023-11-22T06:27:01;3.09;54.78
19340;HTU21D;9804;52.350;6.684;2023-11-22T06:29:26;3.10;51.69
19340;HTU21D;9804;52.350;6.684;2023-11-22T06:31:52;3.09;47.65
19340;HTU21D;9804;52.350;6.684;2023-11-22T06:34:17;3.13;53.41
19340;HTU21D;9804;52.350;6.684;2023-11-22T06:36:43;3.15;59.94
19340;HTU21D;9804;52.350;6.684;2023-11-22T06:39:08;3.17;57.42
19340;HTU21D;9804;52.350;6.684;2023-11-22T06:41:34;3.16;47.65
19340;HTU21D;9804;52.350;6.684;2023-11-22T06:44:00;3.20;68.84
19340;HTU21D;9804;52.350;6.684;2023-11-22T06:46:25;3.24;72.82
19340;HTU21D;9804;52.350;6.684;2023-11-22T06:48:51;3.31;76.37
19340;HTU21D;9804;52.350;6.684;2023-11-22T06:51:16;3.33;74.30
19340;HTU21D;9804;52.350;6.684;2023-11-22T06:53:44;3.28;48.14
19340;HTU21D;9804;52.350;6.684;2023-11-22T06:56:10;3.32;51.90
19340;HTU21D;9804;52.350;6.684;2023-11-22T06:58:36;3.29;48.49
19340;HTU21D;9804;52.350;6.684;2023-11-22T07:01:01;3.36;57.33
19340;HTU21D;9804;52.350;6.684;2023-11-22T07:03:26;3.38;71.88
19340;HTU21D;9804;52.350;6.684;2023-11-22T07:05:52;3.44;80.06
19340;HTU21D;9804;52.350;6.684;2023-11-22T07:08:17;3.47;65.40
19340;HTU21D;9804;52.350;6.684;2023-11-22T07:10:43;3.45;58.18
19340;HTU21D;9804;52.350;6.684;2023-11-22T07:13:10;3.44;54.03
19340;HTU21D;9804;52.350;6.684;2023-11-22T07:15:35;3.47;64.82
19340;HTU21D;9804;52.350;6.684;2023-11-22T07:18:01;3.46;55.72
19340;HTU21D;9804;52.350;6.684;2023-11-22T07:20:26;3.44;50.98
19340;HTU21D;9804;52.350;6.684;2023-11-22T07:22:52;3.45;51.06
19340;HTU21D;9804;52.350;6.684;2023-11-22T07:25:21;3.36;55.45
19340;HTU21D;9804;52.350;6.684;2023-11-22T07:27:50;3.44;73.49
19340;HTU21D;9804;52.350;6.684;2023-11-22T07:30:16;3.54;81.35
19340;HTU21D;9804;52.350;6.684;2023-11-22T07:32:44;3.53;71.59
19340;HTU21D;9804;52.350;6.684;2023-11-22T07:35:10;3.47;59.93
19340;HTU21D;9804;52.350;6.684;2023-11-22T07:37:35;3.49;67.23
19340;HTU21D;9804;52.350;6.684;2023-11-22T07:40:01;3.55;67.78
19340;HTU21D;9804;52.350;6.684;2023-11-22T07:42:29;3.57;68.10
19340;HTU21D;9804;52.350;6.684;2023-11-22T07:44:54;3.55;80.46
19340;HTU21D;9804;52.350;6.684;2023-11-22T07:47:21;3.54;70.45
19340;HTU21D;9804;52.350;6.684;2023-11-22T07:49:48;3.58;67.17
19340;HTU21D;9804;52.350;6.684;2023-11-22T07:52:14;3.64;85.21
19340;HTU21D;9804;52.350;6.684;2023-11-22T07:54:40;3.72;83.11
19340;HTU21D;9804;52.350;6.684;2023-11-22T07:57:06;3.77;78.98
19340;HTU21D;9804;52.350;6.684;2023-11-22T07:59:32;3.78;71.92
19340;HTU21D;9804;52.350;6.684;2023-11-22T08:01:58;3.78;74.44
19340;HTU21D;9804;52.350;6.684;2023-11-22T08:04:23;3.89;74.18
19340;HTU21D;9804;52.350;6.684;2023-11-22T08:06:48;3.92;80.53
19340;HTU21D;9804;52.350;6.684;2023-11-22T08:09:14;4.02;85.96
19340;HTU21D;9804;52.350;6.684;2023-11-22T08:11:42;4.02;95.16
19340;HTU21D;9804;52.350;6.684;2023-11-22T08:14:07;3.95;75.60
19340;HTU21D;9804;52.350;6.684;2023-11-22T08:16:33;4.07;94.80
19340;HTU21D;9804;52.350;6.684;2023-11-22T08:19:03;4.20;104.24
19340;HTU21D;9804;52.350;6.684;2023-11-22T08:21:30;4.29;102.76
19340;HTU21D;9804;52.350;6.684;2023-11-22T08:23:56;4.35;103.78
19340;HTU21D;9804;52.350;6.684;2023-11-22T08:26:21;4.26;85.68
19340;HTU21D;9804;52.350;6.684;2023-11-22T08:28:47;4.28;95.94
19340;HTU21D;9804;52.350;6.684;2023-11-22T08:31:12;4.43;107.62
19340;HTU21D;9804;52.350;6.684;2023-11-22T08:33:39;4.50;105.64
19340;HTU21D;9804;52.350;6.684;2023-11-22T08:36:08;4.60;98.43
19340;HTU21D;9804;52.350;6.684;2023-11-22T08:38:35;4.66;99.49
19340;HTU21D;9804;52.350;6.684;2023-11-22T08:41:04;4.77;93.82
19340;HTU21D;9804;52.350;6.684;2023-11-22T08:43:31;4.84;99.35
19340;HTU21D;9804;52.350;6.684;2023-11-22T08:46:00;5.02;104.37
19340;HTU21D;9804;52.350;6.684;2023-11-22T08:48:30;5.01;94.98
19340;HTU21D;9804;52.350;6.684;2023-11-22T08:50:55;5.19;110.82
19340;HTU21D;9804;52.350;6.684;2023-11-22T08:53:22;5.26;109.22
19340;HTU21D;9804;52.350;6.684;2023-11-22T08:55:47;5.33;110.16
19340;HTU21D;9804;52.350;6.684;2023-11-22T08:58:13;5.26;107.59
19340;HTU21D;9804;52.350;6.684;2023-11-22T09:00:39;5.34;114.38
19340;HTU21D;9804;52.350;6.684;2023-11-22T09:03:09;5.39;106.59
19340;HTU21D;9804;52.350;6.684;2023-11-22T09:05:40;5.47;111.74
19340;HTU21D;9804;52.350;6.684;2023-11-22T09:08:06;5.57;115.39
19340;HTU21D;9804;52.350;6.684;2023-11-22T09:10:32;5.60;114.98
19340;HTU21D;9804;52.350;6.684;2023-11-22T09:12:57;5.68;118.99
19340;HTU21D;9804;52.350;6.684;2023-11-22T09:15:25;5.66;97.53
19340;HTU21D;9804;52.350;6.684;2023-11-22T09:17:52;5.63;78.35
19340;HTU21D;9804;52.350;6.684;2023-11-22T09:20:19;5.62;92.18
19340;HTU21D;9804;52.350;6.684;2023-11-22T09:22:50;5.43;96.94
19340;HTU21D;9804;52.350;6.684;2023-11-22T09:25:23;5.57;118.99
19340;HTU21D;9804;52.350;6.684;2023-11-22T09:27:51;5.78;118.99
19340;HTU21D;9804;52.350;6.684;2023-11-22T09:30:19;5.95;118.99
19340;HTU21D;9804;52.350;6.684;2023-11-22T09:35:30;6.05;118.99
19340;HTU21D;9804;52.350;6.684;2023-11-22T09:38:04;6.25;118.99
19340;HTU21D;9804;52.350;6.684;2023-11-22T09:40:30;6.35;118.99
19340;HTU21D;9804;52.350;6.684;2023-11-22T09:43:00;6.26;118.99
19340;HTU21D;9804;52.350;6.684;2023-11-22T09:45:28;6.20;118.99
19340;HTU21D;9804;52.350;6.684;2023-11-22T09:47:55;6.35;118.99
19340;HTU21D;9804;52.350;6.684;2023-11-22T09:50:28;6.43;118.99
19340;HTU21D;9804;52.350;6.684;2023-11-22T09:52:55;6.53;118.99
19340;HTU21D;9804;52.350;6.684;2023-11-22T09:55:28;6.60;118.99
19340;HTU21D;9804;52.350;6.684;2023-11-22T09:57:53;6.63;111.90
19340;HTU21D;9804;52.350;6.684;2023-11-22T10:00:20;6.71;117.33
19340;HTU21D;9804;52.350;6.684;2023-11-22T10:02:47;6.81;118.99
19340;HTU21D;9804;52.350;6.684;2023-11-22T10:05:13;6.83;118.99
19340;HTU21D;9804;52.350;6.684;2023-11-22T10:07:39;6.90;118.99
19340;HTU21D;9804;52.350;6.684;2023-11-22T10:10:04;6.94;118.99
19340;HTU21D;9804;52.350;6.684;2023-11-22T10:12:31;6.99;117.43
19340;HTU21D;9804;52.350;6.684;2023-11-22T10:15:17;6.84;85.58
19340;HTU21D;9804;52.350;6.684;2023-11-22T10:17:57;6.83;73.51
19340;HTU21D;9804;52.350;6.684;2023-11-22T10:20:42;6.84;46.96
19340;HTU21D;9804;52.350;6.684;2023-11-22T10:23:09;6.83;14.31
19340;HTU21D;9804;52.350;6.684;2023-11-22T10:25:36;7.11;7.26
19340;HTU21D;9804;52.350;6.684;2023-11-22T10:28:02;7.20;-4.11
19340;HTU21D;9804;52.350;6.684;2023-11-22T10:30:28;6.93;-6.00
19340;HTU21D;9804;52.350;6.684;2023-11-22T10:32:55;7.02;-6.00
19340;HTU21D;9804;52.350;6.684;2023-11-22T10:35:21;6.90;-6.00
19340;HTU21D;9804;52.350;6.684;2023-11-22T10:37:47;7.04;-6.00
19340;HTU21D;9804;52.350;6.684;2023-11-22T10:40:14;7.26;-6.00
19340;HTU21D;9804;52.350;6.684;2023-11-22T10:42:41;7.24;-6.00
19340;HTU21D;9804;52.350;6.684;2023-11-22T10:45:08;7.03;-6.00
19340;HTU21D;9804;52.350;6.684;2023-11-22T10:47:37;7.27;-6.00
19340;HTU21D;9804;52.350;6.684;2023-11-22T10:50:07;7.20;-6.00
19340;HTU21D;9804;52.350;6.684;2023-11-22T10:52:34;7.04;-6.00
19340;HTU21D;9804;52.350;6.684;2023-11-22T10:55:03;7.25;-6.00
19340;HTU21D;9804;52.350;6.684;2023-11-22T10:57:31;7.31;-6.00
19340;HTU21D;9804;52.350;6.684;2023-11-22T11:00:00;7.17;-6.00
19340;HTU21D;9804;52.350;6.684;2023-11-22T11:02:32;7.16;-6.00
19340;HTU21D;9804;52.350;6.684;2023-11-22T11:05:15;7.28;-6.00
19340;HTU21D;9804;52.350;6.684;2023-11-22T11:07:47;7.43;-6.00
19340;HTU21D;9804;52.350;6.684;2023-11-22T11:10:13;7.18;-6.00
19340;HTU21D;9804;52.350;6.684;2023-11-22T11:12:39;7.40;-6.00
19340;HTU21D;9804;52.350;6.684;2023-11-22T11:15:05;7.56;-6.00
19340;HTU21D;9804;52.350;6.684;2023-11-22T11:17:31;7.74;-6.00
19340;HTU21D;9804;52.350;6.684;2023-11-22T11:19:57;7.73;-6.00
19340;HTU21D;9804;52.350;6.684;2023-11-22T11:22:24;7.71;-6.00
19340;HTU21D;9804;52.350;6.684;2023-11-22T11:25:00;7.45;-6.00
19340;HTU21D;9804;52.350;6.684;2023-11-22T11:27:28;7.32;-6.00
19340;HTU21D;9804;52.350;6.684;2023-11-22T11:29:53;7.23;-6.00
19340;HTU21D;9804;52.350;6.684;2023-11-22T11:32:37;7.07;-6.00
19340;HTU21D;9804;52.350;6.684;2023-11-22T11:35:03;7.22;-6.00
19340;HTU21D;9804;52.350;6.684;2023-11-22T11:37:31;7.29;-6.00
19340;HTU21D;9804;52.350;6.684;2023-11-22T11:39:58;7.20;-6.00
19340;HTU21D;9804;52.350;6.684;2023-11-22T11:42:24;7.29;-6.00
19340;HTU21D;9804;52.350;6.684;2023-11-22T11:47:27;7.38;-6.00
19340;HTU21D;9804;52.350;6.684;2023-11-22T11:49:52;7.45;-6.00
19340;HTU21D;9804;52.350;6.684;2023-11-22T11:52:17;7.24;-6.00
19340;HTU21D;9804;52.350;6.684;2023-11-22T11:54:43;7.39;-6.00
19340;HTU21D;9804;52.350;6.684;2023-11-22T11:57:09;7.53;-6.00
19340;HTU21D;9804;52.350;6.684;2023-11-22T11:59:35;7.53;-6.00
19340;HTU21D;9804;52.350;6.684;2023-11-22T12:02:01;7.92;-6.00
19340;HTU21D;9804;52.350;6.684;2023-11-22T12:04:27;7.76;-6.00
19340;HTU21D;9804;52.350;6.684;2023-11-22T12:06:52;8.02;-6.00
19340;HTU21D;9804;52.350;6.684;2023-11-22T12:09:25;8.03;-6.00
19340;HTU21D;9804;52.350;6.684;2023-11-22T12:11:55;8.03;-6.00
19340;HTU21D;9804;52.350;6.684;2023-11-22T12:14:22;7.96;-6.00
19340;HTU21D;9804;52.350;6.684;2023-11-22T12:16:51;8.03;-6.00
19340;HTU21D;9804;52.350;6.684;2023-11-22T12:19:23;7.89;-6.00
19340;HTU21D;9804;52.350;6.684;2023-11-22T12:21:50;7.82;-6.00
19340;HTU21D;9804;52.350;6.684;2023-11-22T12:24:15;7.99;-6.00
19340;HTU21D;9804;52.350;6.684;2023-11-22T12:26:45;8.28;-6.00
19340;HTU21D;9804;52.350;6.684;2023-11-22T12:29:12;8.38;-6.00
19340;HTU21D;9804;52.350;6.684;2023-11-22T12:31:49;8.38;-6.00
19340;HTU21D;9804;52.350;6.684;2023-11-22T12:34:17;8.49;-6.00
19340;HTU21D;9804;52.350;6.684;2023-11-22T12:36:42;8.66;-6.00
19340;HTU21D;9804;52.350;6.684;2023-11-22T12:39:09;8.66;-6.00
19340;HTU21D;9804;52.350;6.684;2023-11-22T12:41:45;8.63;-6.00
19340;HTU21D;9804;52.350;6.684;2023-11-22T12:44:11;8.75;-6.00
19340;HTU21D;9804;52.350;6.684;2023-11-22T12:46:53;8.91;-6.00
19340;HTU21D;9804;52.350;6.684;2023-11-22T12:49:25;8.83;-6.00
19340;HTU21D;9804;52.350;6.684;2023-11-22T12:51:56;8.76;-6.00
19340;HTU21D;9804;52.350;6.684;2023-11-22T12:54:22;8.91;-6.00
19340;HTU21D;9804;52.350;6.684;2023-11-22T12:56:51;8.85;-6.00
19340;HTU21D;9804;52.350;6.684;2023-11-22T12:59:23;8.88;-6.00
19340;HTU21D;9804;52.350;6.684;2023-11-22T13:01:48;9.01;-6.00
19340;HTU21D;9804;52.350;6.684;2023-11-22T13:04:14;8.78;-6.00
19340;HTU21D;9804;52.350;6.684;2023-11-22T13:06:41;8.90;-6.00
19340;HTU21D;9804;52.350;6.684;2023-11-22T13:09:07;8.96;-6.00
19340;HTU21D;9804;52.350;6.684;2023-11-22T13:11:32;8.85;-6.00
19340;HTU21D;9804;52.350;6.684;2023-11-22T13:13:58;8.65;-6.00
19340;HTU21D;9804;52.350;6.684;2023-11-22T13:16:23;8.58;-6.00
19340;HTU21D;9804;52.350;6.684;2023-11-22T13:18:49;8.65;-6.00
19340;HTU21D;9804;52.350;6.684;2023-11-22T13:21:15;8.62;-6.00
19340;HTU21D;9804;52.350;6.684;2023-11-22T13:23:40;8.58;-6.00
19340;HTU21D;9804;52.350;6.684;2023-11-22T13:26:06;8.74;-6.00
19340;HTU21D;9804;52.350;6.684;2023-11-22T13:28:34;8.82;-6.00
19340;HTU21D;9804;52.350;6.684;2023-11-22T13:30:59;8.65;-6.00
19340;HTU21D;9804;52.350;6.684;2023-11-22T13:33:25;8.66;-6.00
19340;HTU21D;9804;52.350;6.684;2023-11-22T13:35:51;8.57;-6.00
19340;HTU21D;9804;52.350;6.684;2023-11-22T13:38:17;8.45;-6.00
19340;HTU21D;9804;52.350;6.684;2023-11-22T13:40:43;8.48;-6.00
19340;HTU21D;9804;52.350;6.684;2023-11-22T13:43:11;8.46;-6.00
19340;HTU21D;9804;52.350;6.684;2023-11-22T13:45:38;8.50;-6.00
19340;HTU21D;9804;52.350;6.684;2023-11-22T13:48:06;8.62;-6.00
19340;HTU21D;9804;52.350;6.684;2023-11-22T13:50:35;8.61;-6.00
19340;HTU21D;9804;52.350;6.684;2023-11-22T13:53:01;8.50;-6.00
19340;HTU21D;9804;52.350;6.684;2023-11-22T13:55:26;8.50;-6.00
19340;HTU21D;9804;52.350;6.684;2023-11-22T13:57:54;8.64;-6.00
19340;HTU21D;9804;52.350;6.684;2023-11-22T14:00:21;8.58;-6.00
19340;HTU21D;9804;52.350;6.684;2023-11-22T14:02:56;8.42;-6.00
19340;HTU21D;9804;52.350;6.684;2023-11-22T14:05:26;8.41;-6.00
19340;HTU21D;9804;52.350;6.684;2023-11-22T14:07:54;8.48;-6.00
19340;HTU21D;9804;52.350;6.684;2023-11-22T14:10:20;8.62;-6.00
19340;HTU21D;9804;52.350;6.684;2023-11-22T14:12:48;8.33;-6.00
19340;HTU21D;9804;52.350;6.684;2023-11-22T14:15:14;8.24;-6.00
19340;HTU21D;9804;52.350;6.684;2023-11-22T14:17:40;8.22;-6.00
19340;HTU21D;9804;52.350;6.684;2023-11-22T14:20:13;8.28;-6.00
19340;HTU21D;9804;52.350;6.684;2023-11-22T14:22:39;8.37;-6.00
19340;HTU21D;9804;52.350;6.684;2023-11-22T14:25:06;8.45;-6.00
19340;HTU21D;9804;52.350;6.684;2023-11-22T14:27:40;8.19;-6.00
19340;HTU21D;9804;52.350;6.684;2023-11-22T14:30:10;8.36;-6.00
19340;HTU21D;9804;52.350;6.684;2023-11-22T14:32:39;8.30;-6.00
19340;HTU21D;9804;52.350;6.684;2023-11-22T14:35:05;8.30;-6.00
19340;HTU21D;9804;52.350;6.684;2023-11-22T14:37:30;8.26;-6.00
19340;HTU21D;9804;52.350;6.684;2023-11-22T14:39:57;8.44;-6.00
19340;HTU21D;9804;52.350;6.684;2023-11-22T14:42:22;8.42;-6.00
19340;HTU21D;9804;52.350;6.684;2023-11-22T14:44:50;8.38;-6.00
19340;HTU21D;9804;52.350;6.684;2023-11-22T14:47:16;8.20;-6.00
19340;HTU21D;9804;52.350;6.684;2023-11-22T14:49:44;8.31;-6.00
19340;HTU21D;9804;52.350;6.684;2023-11-22T14:52:10;8.26;-6.00
19340;HTU21D;9804;52.350;6.684;2023-11-22T14:54:36;8.18;-6.00
19340;HTU21D;9804;52.350;6.684;2023-11-22T14:57:02;8.17;-6.00
19340;HTU21D;9804;52.350;6.684;2023-11-22T14:59:28;8.33;-6.00
19340;HTU21D;9804;52.350;6.684;2023-11-22T15:01:57;8.30;-6.00
19340;HTU21D;9804;52.350;6.684;2023-11-22T15:04:25;8.32;-6.00
19340;HTU21D;9804;52.350;6.684;2023-11-22T15:06:51;8.39;-6.00
19340;HTU21D;9804;52.350;6.684;2023-11-22T15:09:17;8.27;-6.00
19340;HTU21D;9804;52.350;6.684;2023-11-22T15:11:43;8.04;-6.00
19340;HTU21D;9804;52.350;6.684;2023-11-22T15:14:09;8.27;-6.00
19340;HTU21D;9804;52.350;6.684;2023-11-22T15:16:34;8.28;-6.00
19340;HTU21D;9804;52.350;6.684;2023-11-22T15:19:01;8.27;-6.00
19340;HTU21D;9804;52.350;6.684;2023-11-22T15:21:28;8.15;-6.00
19340;HTU21D;9804;52.350;6.684;2023-11-22T15:23:53;7.91;-6.00
19340;HTU21D;9804;52.350;6.684;2023-11-22T15:26:24;7.98;-6.00
19340;HTU21D;9804;52.350;6.684;2023-11-22T15:28:50;7.93;-6.00
19340;HTU21D;9804;52.350;6.684;2023-11-22T15:31:18;8.00;-6.00
19340;HTU21D;9804;52.350;6.684;2023-11-22T15:33:45;7.99;-6.00
19340;HTU21D;9804;52.350;6.684;2023-11-22T15:36:11;7.91;-6.00
19340;HTU21D;9804;52.350;6.684;2023-11-22T15:38:37;7.93;-6.00
19340;HTU21D;9804;52.350;6.684;2023-11-22T15:41:02;7.85;-6.00
19340;HTU21D;9804;52.350;6.684;2023-11-22T15:43:28;7.99;-6.00